Time;durP1;ratioP1;P1;durP2;ratioP2;P2;SDS_P1;SDS_P2;PMS_P1;PMS_P2;Temp;Humidity;BMP_temperature;BMP_pressure;BME280_temperature;BME280_humidity;BME280_pressure;Samples;Min_cycle;Max_cycle;Signal;HPM_P1;HPM_P2
2023/08/30 07:01:25;;;;;;;1.50;1.50;;;15.30;99.90;18.10;100301.00;;;;6185053;22;1426821;-70
2023/08/30 07:04:02;;;;;;;1.30;1.30;;;15.10;99.90;18.20;100291.00;;;;6278617;22;20677;-70
2023/08/30 07:06:30;;;;;;;1.30;1.30;;;15.20;99.90;18.40;100288.00;;;;6277652;22;20562;-70
2023/08/30 07:08:58;;;;;;;2.90;2.70;;;15.30;99.90;17.80;100291.00;;;;6278343;22;20154;-70
2023/08/30 07:11:47;;;;;;;2.20;2.00;;;15.30;99.90;18.10;100293.00;;;;6278769;22;20174;-70
2023/08/30 07:14:14;;;;;;;3.57;3.37;;;15.40;99.90;18.40;100288.00;;;;6276870;22;20210;-69
2023/08/30 07:16:41;;;;;;;1.30;1.30;;;15.50;99.90;18.60;100293.00;;;;6251522;22;20171;-70
2023/08/30 07:19:27;;;;;;;2.13;2.07;;;15.50;99.90;17.70;100277.00;;;;6278500;22;20488;-69
2023/08/30 07:22:11;;;;;;;1.33;1.33;;;15.50;99.90;19.20;100294.00;;;;6277163;22;20167;-69
2023/08/30 07:24:42;;;;;;;1.53;1.53;;;15.70;99.90;17.70;100298.00;;;;6277852;22;20561;-70
2023/08/30 07:27:40;;;;;;;1.27;1.27;;;15.50;99.90;18.90;100296.00;;;;6276671;22;20161;-69
2023/08/30 07:30:12;;;;;;;1.40;1.40;;;15.50;99.90;19.50;100292.00;;;;6266434;22;20221;-69
2023/08/30 07:32:45;;;;;;;1.37;1.37;;;15.90;99.90;19.10;100293.00;;;;6276915;22;20234;-70
2023/08/30 07:35:14;;;;;;;3.40;3.30;;;15.90;99.90;18.00;100258.00;;;;6276704;22;20151;-69
2023/08/30 07:38:03;;;;;;;1.50;1.50;;;15.70;99.90;19.40;100279.00;;;;6250984;22;20156;-70
2023/08/30 07:40:32;;;;;;;3.23;3.03;;;15.90;99.90;19.10;100293.00;;;;6278262;22;20144;-70
2023/08/30 07:42:58;;;;;;;2.27;2.07;;;16.00;99.90;17.90;100248.00;;;;6276352;22;20174;-69
2023/08/30 07:45:44;;;;;;;1.87;1.87;;;15.70;99.90;18.10;100308.00;;;;6276795;22;20224;-69
2023/08/30 07:48:12;;;;;;;2.70;2.53;;;15.60;99.90;17.80;100299.00;;;;6276382;22;20478;-69
2023/08/30 07:50:41;;;;;;;1.57;1.57;;;15.60;99.90;19.50;100307.00;;;;6278215;22;20565;-70
2023/08/30 07:53:27;;;;;;;1.80;1.80;;;16.00;99.90;19.30;100308.00;;;;6276194;22;20455;-70
2023/08/30 07:56:15;;;;;;;1.80;1.80;;;16.00;99.90;20.10;100287.00;;;;6251104;22;20160;-70
2023/08/30 07:58:42;;;;;;;2.83;2.37;;;16.50;99.90;20.10;100284.00;;;;6277934;22;20585;-69
2023/08/30 08:01:43;;;;;;;2.00;2.00;;;16.90;99.90;20.30;100279.00;;;;6276229;22;20161;-70
2023/08/30 08:04:17;;;;;;;1.80;1.80;;;17.30;99.90;19.80;100285.00;;;;6276155;22;20143;-70
2023/08/30 08:06:43;;;;;;;2.33;2.23;;;17.00;99.90;19.60;100282.00;;;;6277291;22;20138;-70
2023/08/30 08:09:29;;;;;;;2.00;2.00;;;17.10;99.90;20.60;100273.00;;;;6277664;22;20205;-69
2023/08/30 08:12:01;;;;;;;2.93;2.83;;;17.20;99.90;21.00;100285.00;;;;6277027;22;20169;-71
2023/08/30 08:14:27;;;;;;;3.30;3.20;;;17.70;99.90;21.20;100289.00;;;;6276853;22;20234;-70
2023/08/30 08:16:53;;;;;;;2.70;2.60;;;17.90;99.90;20.40;100284.00;;;;6276405;22;20172;-69
2023/08/30 08:19:21;;;;;;;2.70;2.60;;;17.60;99.90;20.90;100282.00;;;;6250748;22;20580;-70
2023/08/30 08:21:49;;;;;;;1.70;1.70;;;17.70;99.90;19.20;100286.00;;;;6277685;22;20155;-70
2023/08/30 08:24:22;;;;;;;3.00;2.90;;;17.10;99.90;19.60;100286.00;;;;6276224;22;20151;-70
2023/08/30 08:26:55;;;;;;;1.83;1.83;;;17.00;99.90;19.40;100255.00;;;;6277401;22;20153;-69
2023/08/30 08:29:23;;;;;;;3.80;2.40;;;17.00;99.90;20.10;100294.00;;;;6276011;22;20168;-70
2023/08/30 08:31:49;;;;;;;1.87;1.87;;;17.20;99.90;21.50;100286.00;;;;6276256;22;20151;-70
2023/08/30 08:34:17;;;;;;;4.73;4.43;;;17.80;99.90;21.30;100294.00;;;;6275957;22;20235;-69
2023/08/30 08:36:43;;;;;;;2.30;2.30;;;18.20;99.90;20.80;100286.00;;;;6277291;22;20205;-70
2023/08/30 08:39:09;;;;;;;2.87;2.73;;;18.10;99.90;21.00;100294.00;;;;6277479;22;20144;-69
2023/08/30 08:41:45;;;;;;;2.80;2.70;;;18.20;99.90;19.80;100300.00;;;;6276122;22;20143;-69
2023/08/30 08:44:22;;;;;;;3.87;3.70;;;17.70;99.90;20.50;100311.00;;;;6250778;22;20162;-69
2023/08/30 08:46:51;;;;;;;2.60;2.50;;;17.50;99.90;20.60;100302.00;;;;6276000;22;20147;-69
2023/08/30 08:49:17;;;;;;;3.57;3.47;;;17.70;99.90;21.10;100291.00;;;;6250793;22;20166;-69
2023/08/30 08:51:51;;;;;;;1.80;1.80;;;18.00;99.90;20.90;100290.00;;;;6277095;22;20197;-70
2023/08/30 08:54:16;;;;;;;2.93;2.73;;;18.10;99.90;20.50;100291.00;;;;6277706;22;20148;-70
2023/08/30 08:56:52;;;;;;;2.30;2.20;;;18.00;99.90;20.90;100259.00;;;;6275796;22;20149;-70
2023/08/30 08:59:21;;;;;;;2.40;2.20;;;18.50;99.90;20.30;100262.00;;;;6250152;22;20550;-70
2023/08/30 09:01:48;;;;;;;1.52;1.52;;;18.20;99.90;21.10;100305.00;;;;6281031;22;20156;-70
2023/08/30 09:04:14;;;;;;;2.83;2.60;;;18.40;99.90;20.90;100298.00;;;;6254975;22;20580;-70
2023/08/30 09:06:47;;;;;;;2.15;2.05;;;18.60;99.90;21.10;100306.00;;;;6308143;22;20154;-70
2023/08/30 09:09:13;;;;;;;2.00;1.80;;;18.70;99.90;21.20;100301.00;;;;6255704;22;20158;-70
2023/08/30 09:11:39;;;;;;;1.83;1.73;;;18.60;99.90;20.40;100298.00;;;;6280898;22;20459;-70
2023/08/30 09:14:05;;;;;;;1.33;1.27;;;18.30;99.90;21.10;100300.00;;;;6308173;22;20155;-70
2023/08/30 09:16:31;;;;;;;1.38;1.38;;;18.70;99.90;21.30;100289.00;;;;6280142;22;20539;-69
2023/08/30 09:19:05;;;;;;;1.98;1.95;;;18.70;99.90;23.20;100303.00;;;;6254807;22;20156;-70
2023/08/30 09:21:39;;;;;;;1.77;1.77;;;19.50;99.90;22.00;100310.00;;;;6280415;22;20479;-70
2023/08/30 09:24:10;;;;;;;3.40;3.00;;;19.70;99.90;22.00;100303.00;;;;6308191;22;20148;-69
2023/08/30 09:26:37;;;;;;;0.80;0.80;;;19.70;99.90;22.60;100322.00;;;;6280562;22;20217;-70
2023/08/30 09:29:08;;;;;;;2.20;2.10;;;19.90;99.90;25.40;100338.00;;;;6280676;22;20141;-70
2023/08/30 09:31:42;;;;;;;1.90;1.90;;;21.10;99.90;26.70;100368.00;;;;6280946;22;20156;-70
2023/08/30 09:34:08;;;;;;;1.45;1.45;;;22.30;99.90;26.40;100377.00;;;;6281050;22;20148;-70
2023/08/30 09:36:53;;;;;;;1.30;1.30;;;22.70;99.90;25.70;100343.00;;;;6280953;22;20144;-70
2023/08/30 09:39:20;;;;;;;1.45;1.45;;;22.30;99.90;25.40;100384.00;;;;6257003;22;20163;-70
2023/08/30 09:41:54;;;;;;;1.00;1.00;;;21.90;99.90;26.30;100401.00;;;;6280965;22;20164;-70
2023/08/30 09:44:21;;;;;;;6.22;5.80;;;22.30;99.90;27.70;100421.00;;;;6280832;22;20141;-70
2023/08/30 09:46:58;;;;;;;1.58;1.58;;;23.20;99.90;28.40;100454.00;;;;6255048;22;20243;-70
2023/08/30 09:49:31;;;;;;;1.20;1.20;;;23.90;99.90;28.20;100474.00;;;;6254720;22;20152;-70
2023/08/30 09:52:08;;;;;;;1.00;1.00;;;24.20;99.90;27.70;100481.00;;;;6255282;22;20235;-70
2023/08/30 09:54:43;;;;;;;0.60;0.60;;;23.80;99.90;27.40;100500.00;;;;6280609;22;20160;-70
2023/08/30 09:57:10;;;;;;;0.90;0.90;;;23.70;99.90;27.80;100489.00;;;;6307740;22;20137;-70
2023/08/30 09:59:46;;;;;;;0.50;0.50;;;23.80;99.90;27.40;100500.00;;;;6280209;22;20156;-71
2023/08/30 10:02:20;;;;;;;0.80;0.80;;;23.80;99.90;28.20;100494.00;;;;6254747;22;20176;-70
2023/08/30 10:04:47;;;;;;;1.00;1.00;;;24.00;99.90;28.20;100500.00;;;;6254731;22;20238;-70
2023/08/30 10:07:15;;;;;;;8.95;1.67;;;24.30;99.90;28.10;100484.00;;;;6280207;22;20194;-70
2023/08/30 10:09:47;;;;;;;0.55;0.55;;;24.40;99.90;24.00;100533.00;;;;6280509;22;20258;-70
2023/08/30 10:12:24;;;;;;;0.43;0.43;;;22.20;99.90;25.30;100502.00;;;;6280491;22;20149;-70
2023/08/30 10:15:15;;;;;;;0.90;0.90;;;21.80;99.90;25.30;100512.00;;;;6280456;22;20140;-70
2023/08/30 10:17:58;;;;;;;0.40;0.40;;;21.80;99.90;24.90;100519.00;;;;6279777;22;20443;-70
2023/08/30 10:20:27;;;;;;;1.00;0.98;;;21.40;99.90;24.90;100514.00;;;;6254766;22;20592;-70
2023/08/30 10:33:43;;;;;;;0.30;0.30;;;21.30;99.90;25.50;100428.00;;;;5070102;28;20552;-69
2023/08/30 10:36:24;;;;;;;0.30;0.30;;;22.00;99.90;25.80;100486.00;;;;5049233;28;20194;-69
2023/08/30 10:39:14;;;;;;;0.40;0.40;;;22.20;99.90;25.10;100507.00;;;;5049147;28;20708;-69
2023/08/30 10:42:10;;;;;;;1.90;1.85;;;22.10;99.90;25.60;100514.00;;;;5048518;28;20237;-69
2023/08/30 10:45:04;;;;;;;0.30;0.30;;;21.90;99.90;26.60;100501.00;;;;5046570;28;20182;-69
2023/08/30 10:47:40;;;;;;;0.20;0.20;;;22.40;99.90;27.40;100481.00;;;;5039815;28;20197;-69
2023/08/30 10:50:11;;;;;;;0.20;0.20;;;23.10;99.90;26.80;100463.00;;;;5048820;28;20636;-69
2023/08/30 10:52:37;;;;;;;0.15;0.15;;;23.30;99.90;25.70;100521.00;;;;5047442;28;20555;-69
2023/08/30 10:55:15;;;;;;;0.35;0.20;;;22.50;99.90;25.70;100521.00;;;;5040944;28;20182;-70
2023/08/30 10:58:13;;;;;;;1.25;0.35;;;22.30;99.90;27.30;100504.00;;;;5048621;28;20239;-69
2023/08/30 11:00:57;;;;;;;0.20;0.20;;;23.20;99.90;28.40;100474.00;;;;5048768;28;20273;-70
2023/08/30 11:03:29;;;;;;;2.10;0.52;;;24.10;99.90;28.50;100459.00;;;;5048941;28;20190;-69
2023/08/30 11:06:01;;;;;;;0.88;0.63;;;24.60;99.90;28.70;100458.00;;;;5049789;28;20219;-69
2023/08/30 11:08:52;;;;;;;0.28;0.28;;;24.90;99.90;28.90;100447.00;;;;5048742;28;20210;-69
2023/08/30 11:11:20;;;;;;;2.42;0.63;;;25.10;99.90;27.60;100453.00;;;;5048132;28;20217;-69
2023/08/30 11:14:06;;;;;;;0.38;0.38;;;24.70;99.90;26.80;100483.00;;;;5048559;28;20265;-69
2023/08/30 11:16:35;;;;;;;0.63;0.63;;;23.70;99.90;27.30;100472.00;;;;5048268;28;20250;-69
2023/08/30 11:19:06;;;;;;;0.20;0.20;;;23.80;99.90;27.80;100459.00;;;;5042296;28;20236;-69
2023/08/30 11:21:45;;;;;;;0.20;0.20;;;23.90;99.90;27.60;100478.00;;;;5048408;28;20561;-69
2023/08/30 11:24:12;;;;;;;4.00;1.45;;;23.80;99.90;26.50;100464.00;;;;5046054;28;20225;-69
2023/08/30 11:26:52;;;;;;;0.50;0.50;;;23.50;99.90;25.40;100512.00;;;;5049695;28;20187;-69
2023/08/30 11:29:21;;;;;;;1.00;0.57;;;22.50;99.90;26.90;100507.00;;;;5047848;28;20194;-69
2023/08/30 11:31:55;;;;;;;0.10;0.10;;;23.00;99.90;27.00;100502.00;;;;5048309;28;20226;-69
2023/08/30 11:34:37;;;;;;;0.20;0.20;;;23.00;99.90;26.70;100485.00;;;;5043205;28;20191;-69
2023/08/30 11:37:03;;;;;;;0.43;0.40;;;22.90;99.90;26.00;100539.00;;;;5032566;28;20210;-69
2023/08/30 11:39:32;;;;;;;0.20;0.20;;;22.50;99.90;24.90;100524.00;;;;5061108;28;20254;-69
2023/08/30 11:41:59;;;;;;;0.40;0.40;;;21.70;99.90;24.20;100578.00;;;;5045983;28;20194;-69
2023/08/30 11:44:45;;;;;;;0.10;0.10;;;21.20;99.90;26.20;100554.00;;;;5036798;28;20187;-69
2023/08/30 11:47:27;;;;;;;0.20;0.20;;;21.90;99.90;27.20;100520.00;;;;5028617;28;20656;-70
2023/08/30 11:50:14;;;;;;;0.20;0.20;;;22.70;99.90;26.10;100527.00;;;;5031402;28;20183;-69
2023/08/30 11:52:40;;;;;;;2.53;0.77;;;22.70;99.90;25.00;100556.00;;;;5023443;28;20194;-69
2023/08/30 11:55:07;;;;;;;2.20;1.45;;;22.40;99.90;24.60;100589.00;;;;5022653;28;20179;-69
2023/08/30 11:57:44;;;;;;;0.13;0.13;;;21.80;99.90;25.80;100554.00;;;;5034468;28;20458;-69
2023/08/30 12:00:21;;;;;;;0.10;0.10;;;22.00;99.90;26.40;100534.00;;;;5034198;28;20194;-69
2023/08/30 12:02:56;;;;;;;0.32;0.32;;;22.20;99.90;26.60;100543.00;;;;5034115;28;20260;-69
2023/08/30 12:05:24;;;;;;;0.10;0.10;;;22.50;99.90;27.80;100529.00;;;;5026800;28;20216;-69
2023/08/30 12:08:19;;;;;;;0.10;0.10;;;23.10;99.90;27.70;100527.00;;;;5035868;28;20244;-69
2023/08/30 12:11:06;;;;;;;0.20;0.20;;;23.50;99.90;27.60;100533.00;;;;5035838;28;20220;-69
2023/08/30 12:14:14;;;;;;;0.20;0.20;;;23.50;99.90;27.00;100535.00;;;;5029394;28;20179;-69
2023/08/30 12:17:03;;;;;;;0.13;0.13;;;23.50;99.90;27.60;100536.00;;;;5047909;28;20221;-68
2023/08/30 12:19:59;;;;;;;0.20;0.20;;;23.50;99.90;27.00;100538.00;;;;5034207;28;20713;-69
2023/08/30 12:23:03;;;;;;;0.13;0.13;;;23.30;99.90;26.40;100525.00;;;;5020317;28;20607;-69
2023/08/30 12:25:58;;;;;;;0.20;0.20;;;22.70;99.90;25.70;100577.00;;;;5018781;28;20539;-69
2023/08/30 12:28:47;;;;;;;0.20;0.20;;;22.10;99.90;26.20;100578.00;;;;5033725;28;20633;-69
2023/08/30 12:31:31;;;;;;;0.20;0.20;;;22.10;99.90;26.00;100555.00;;;;5016865;28;20217;-69
2023/08/30 12:34:20;;;;;;;0.15;0.15;;;22.10;99.90;26.20;100595.00;;;;5034854;28;20187;-69
2023/08/30 12:37:09;;;;;;;0.10;0.10;;;22.10;99.90;25.90;100576.00;;;;5018701;28;20257;-68
2023/08/30 12:40:03;;;;;;;0.20;0.20;;;22.10;99.90;26.70;100597.00;;;;5066500;28;20190;-69
2023/08/30 12:42:49;;;;;;;0.40;0.40;;;22.40;99.90;26.00;100598.00;;;;5047126;28;20264;-69
2023/08/30 12:45:48;;;;;;;0.20;0.20;;;22.40;99.90;26.10;100595.00;;;;5033605;28;20197;-69
2023/08/30 12:48:28;;;;;;;0.10;0.10;;;22.40;99.90;26.40;100606.00;;;;5058996;28;20199;-70
2023/08/30 12:51:16;;;;;;;0.10;0.10;;;22.40;99.90;26.30;100607.00;;;;5033492;28;20206;-69
2023/08/30 12:54:05;;;;;;;1.45;1.42;;;22.50;99.90;26.30;100601.00;;;;5035115;28;20187;-69
2023/08/30 12:56:45;;;;;;;0.20;0.20;;;22.40;99.90;26.00;100604.00;;;;5031986;28;20229;-70
2023/08/30 12:59:14;;;;;;;1.48;1.38;;;22.20;99.90;26.00;100617.00;;;;5030331;28;20174;-69
2023/08/30 13:02:20;;;;;;;0.17;0.17;;;22.10;99.90;25.90;100628.00;;;;5032933;28;20191;-69
2023/08/30 13:05:09;;;;;;;0.20;0.20;;;22.00;99.90;26.00;100634.00;;;;5031580;28;20198;-69
2023/08/30 13:07:55;;;;;;;1.58;1.00;;;21.90;99.90;24.30;100663.00;;;;5023488;28;20652;-69
2023/08/30 13:10:59;;;;;;;0.10;0.10;;;21.30;99.90;25.70;100631.00;;;;5032941;28;20187;-68
2023/08/30 13:13:42;;;;;;;0.13;0.13;;;21.50;99.90;25.70;100635.00;;;;5030688;28;20219;-69
2023/08/30 13:16:32;;;;;;;0.20;0.20;;;21.60;99.90;26.10;100638.00;;;;5034087;28;20589;-69
2023/08/30 13:19:18;;;;;;;0.10;0.10;;;21.80;99.90;25.60;100600.00;;;;5033144;28;20268;-69
2023/08/30 13:22:02;;;;;;;0.65;0.50;;;21.70;99.90;25.20;100606.00;;;;5030503;28;20187;-69
2023/08/30 13:24:37;;;;;;;0.15;0.15;;;21.50;99.90;25.40;100621.00;;;;5032616;28;20265;-69
2023/08/30 13:27:31;;;;;;;0.22;0.22;;;21.60;99.90;25.20;100629.00;;;;5032412;28;20190;-69
2023/08/30 13:30:07;;;;;;;0.20;0.20;;;21.50;99.90;25.60;100617.00;;;;5030610;28;20281;-68
2023/08/30 13:32:59;;;;;;;20.52;1.80;;;21.60;99.90;25.40;100624.00;;;;5045679;28;20210;-69
2023/08/30 13:35:53;;;;;;;0.30;0.30;;;21.60;99.90;25.30;100627.00;;;;5027830;28;20645;-69
2023/08/30 13:38:41;;;;;;;0.10;0.10;;;21.70;99.90;25.80;100633.00;;;;5032227;28;20190;-69
2023/08/30 13:41:25;;;;;;;1.95;0.20;;;21.80;99.90;25.50;100620.00;;;;5022014;28;20182;-69
2023/08/30 13:43:53;;;;;;;0.20;0.20;;;21.60;99.90;25.50;100621.00;;;;5028963;28;20184;-69
2023/08/30 13:46:28;;;;;;;0.25;0.25;;;21.50;99.90;25.60;100611.00;;;;5028636;28;20193;-70
2023/08/30 13:49:11;;;;;;;0.38;0.38;;;21.50;99.90;25.40;100607.00;;;;5048449;28;20174;-69
2023/08/30 13:51:49;;;;;;;0.57;0.57;;;21.60;99.90;25.10;100627.00;;;;5031835;28;20198;-69
2023/08/30 13:54:32;;;;;;;0.20;0.20;;;21.30;99.90;25.70;100616.00;;;;5031767;28;20187;-69
2023/08/30 13:57:23;;;;;;;1.00;0.65;;;21.60;99.90;25.40;100605.00;;;;5022816;28;20257;-69
2023/08/30 14:00:22;;;;;;;0.20;0.20;;;21.80;99.90;26.00;100611.00;;;;5031696;28;20194;-69
2023/08/30 14:03:06;;;;;;;1.90;1.80;;;21.90;99.90;25.90;100605.00;;;;5031449;28;20259;-69
2023/08/30 14:06:00;;;;;;;0.20;0.20;;;22.00;99.90;25.90;100598.00;;;;5032373;28;20628;-69
2023/08/30 14:08:49;;;;;;;0.20;0.20;;;22.00;99.90;26.00;100579.00;;;;5026618;28;20203;-68
2023/08/30 14:11:33;;;;;;;0.20;0.20;;;22.00;99.90;25.30;100638.00;;;;5044670;28;20183;-69
2023/08/30 14:14:24;;;;;;;0.10;0.10;;;21.60;99.90;25.60;100597.00;;;;5015574;28;20600;-70
2023/08/30 14:17:07;;;;;;;0.20;0.20;;;21.70;99.90;25.70;100631.00;;;;5032875;28;20269;-69
2023/08/30 14:19:58;;;;;;;0.10;0.10;;;21.80;99.90;24.90;100671.00;;;;5032055;28;20209;-69
2023/08/30 14:22:26;;;;;;;1.13;1.13;;;21.20;99.90;25.60;100644.00;;;;5032911;28;20197;-69
2023/08/30 14:25:04;;;;;;;0.10;0.10;;;21.40;99.90;25.90;100634.00;;;;5032684;28;20187;-69
2023/08/30 14:27:51;;;;;;;0.20;0.20;;;21.70;99.90;25.80;100645.00;;;;5016603;28;20187;-69
2023/08/30 14:30:40;;;;;;;0.10;0.10;;;21.70;99.90;25.70;100645.00;;;;5032728;28;20199;-69
2023/08/30 14:33:33;;;;;;;0.10;0.10;;;21.70;99.90;25.90;100641.00;;;;5028333;28;20206;-69
2023/08/30 14:36:42;;;;;;;0.10;0.10;;;21.70;99.90;26.10;100644.00;;;;5032034;28;20284;-69
2023/08/30 14:39:31;;;;;;;0.47;0.47;;;21.80;99.90;25.90;100655.00;;;;5045487;28;20306;-69
2023/08/30 14:42:20;;;;;;;0.20;0.20;;;21.80;99.90;25.50;100670.00;;;;5027497;28;20703;-69
2023/08/30 14:45:07;;;;;;;0.10;0.10;;;21.70;99.90;25.70;100666.00;;;;5032777;28;20299;-69
2023/08/30 14:47:58;;;;;;;0.10;0.10;;;21.60;99.90;25.80;100676.00;;;;5027880;28;20229;-69
2023/08/30 14:50:29;;;;;;;0.20;0.20;;;21.60;99.90;25.30;100683.00;;;;5032584;28;20190;-70
2023/08/30 14:53:29;;;;;;;0.20;0.20;;;21.40;99.90;25.30;100684.00;;;;5022537;28;20297;-69
2023/08/30 14:56:22;;;;;;;0.20;0.20;;;21.40;99.90;25.20;100683.00;;;;5032458;28;20202;-68
2023/08/30 14:59:25;;;;;;;1.20;1.20;;;21.20;99.90;25.10;100682.00;;;;5032670;28;20186;-69
2023/08/30 15:02:16;;;;;;;0.57;0.57;;;21.10;99.90;25.20;100694.00;;;;5030893;28;20191;-69
2023/08/30 15:04:50;;;;;;;0.20;0.20;;;21.00;99.90;24.90;100693.00;;;;5039409;28;20568;-69
2023/08/30 15:07:51;;;;;;;0.30;0.30;;;21.10;99.90;25.60;100685.00;;;;5031024;28;20191;-69
2023/08/30 15:10:42;;;;;;;0.10;0.10;;;21.30;99.90;24.40;100695.00;;;;5012230;28;20202;-69
2023/08/30 15:13:17;;;;;;;0.68;0.68;;;21.00;99.90;23.50;100719.00;;;;5043500;28;20199;-69
2023/08/30 15:16:07;;;;;;;0.22;0.22;;;20.20;99.90;24.60;100708.00;;;;5031531;28;20187;-69
2023/08/30 15:19:08;;;;;;;0.20;0.20;;;20.40;99.90;24.70;100704.00;;;;5039741;28;20187;-69
2023/08/30 15:21:54;;;;;;;0.10;0.10;;;20.60;99.90;24.90;100698.00;;;;5034749;28;20664;-69
2023/08/30 15:24:42;;;;;;;0.20;0.20;;;20.90;99.90;24.80;100642.00;;;;5034839;28;20199;-69
2023/08/30 15:27:28;;;;;;;0.47;0.47;;;20.90;99.90;24.60;100703.00;;;;5022716;28;20230;-69
2023/08/30 15:30:20;;;;;;;0.30;0.30;;;20.80;99.90;24.40;100708.00;;;;5034687;28;20194;-68
2023/08/30 15:33:07;;;;;;;0.20;0.20;;;20.60;99.90;24.80;100705.00;;;;5034515;28;20210;-69
2023/08/30 15:38:59;;;;;;;0.20;0.20;;;20.60;99.90;24.30;100710.00;;;;5034905;28;20222;-69
2023/08/30 15:41:30;;;;;;;0.20;0.20;;;20.40;99.90;24.50;100706.00;;;;5018447;28;20190;-69
2023/08/30 15:44:18;;;;;;;0.30;0.30;;;20.50;99.90;24.90;100710.00;;;;5036027;28;20183;-68
2023/08/30 15:46:59;;;;;;;2.28;0.50;;;20.70;99.90;25.00;100695.00;;;;5017968;28;20317;-69
2023/08/30 15:49:47;;;;;;;0.10;0.10;;;20.90;99.90;24.60;100708.00;;;;5035778;28;20187;-69
2023/08/30 15:52:16;;;;;;;0.10;0.10;;;20.70;99.90;24.30;100713.00;;;;5023524;28;20212;-69
2023/08/30 15:55:02;;;;;;;0.20;0.20;;;20.60;99.90;24.80;100706.00;;;;5065983;28;20269;-69
2023/08/30 15:57:30;;;;;;;0.52;0.52;;;20.70;99.90;24.60;100701.00;;;;5034413;28;20206;-69
2023/08/30 15:59:58;;;;;;;0.20;0.20;;;20.70;99.90;24.90;100689.00;;;;5035743;28;20198;-69
2023/08/30 16:02:30;;;;;;;0.20;0.20;;;20.70;99.90;25.00;100680.00;;;;5035324;28;20195;-69
2023/08/30 16:05:06;;;;;;;0.38;0.38;;;20.90;99.90;25.20;100689.00;;;;5033529;28;20206;-69
2023/08/30 16:07:57;;;;;;;0.20;0.20;;;21.00;99.90;25.20;100680.00;;;;5033956;28;20186;-68
2023/08/30 16:10:36;;;;;;;0.20;0.20;;;21.10;99.90;25.30;100670.00;;;;5034544;28;20633;-69
2023/08/30 16:13:05;;;;;;;0.20;0.20;;;21.10;99.90;24.50;100695.00;;;;5029734;28;20210;-68
2023/08/30 16:15:33;;;;;;;0.10;0.10;;;20.80;99.90;24.50;100694.00;;;;5033852;28;20193;-68
2023/08/30 16:18:25;;;;;;;0.20;0.20;;;20.60;99.90;24.20;100704.00;;;;5017650;28;20199;-69
2023/08/30 16:21:11;;;;;;;0.77;0.35;;;20.50;99.90;23.40;100717.00;;;;5034833;28;20198;-69
2023/08/30 16:24:03;;;;;;;0.10;0.10;;;20.30;99.90;24.10;100713.00;;;;5034149;28;20241;-69
2023/08/30 16:26:55;;;;;;;0.10;0.10;;;20.10;99.90;24.80;100685.00;;;;5049838;28;20190;-69
2023/08/30 16:29:42;;;;;;;0.20;0.20;;;20.40;99.90;25.00;100687.00;;;;5031254;28;20187;-69
2023/08/30 16:32:12;;;;;;;0.20;0.20;;;20.70;99.90;25.00;100683.00;;;;5033148;28;20716;-69
2023/08/30 16:35:01;;;;;;;0.20;0.20;;;20.70;99.90;24.60;100645.00;;;;5061443;28;20218;-69
2023/08/30 16:37:27;;;;;;;0.20;0.20;;;20.70;99.90;24.90;100681.00;;;;5007994;28;20195;-70
2023/08/30 16:39:56;;;;;;;0.20;0.20;;;20.70;99.90;24.80;100697.00;;;;5033952;28;20190;-69
2023/08/30 16:42:36;;;;;;;0.20;0.20;;;20.60;99.90;24.70;100695.00;;;;5034948;28;20198;-70
2023/08/30 16:45:31;;;;;;;0.20;0.20;;;20.50;99.90;24.60;100702.00;;;;5030392;28;20183;-69
2023/08/30 16:48:20;;;;;;;0.20;0.20;;;20.50;99.90;24.30;100692.00;;;;5028286;28;20199;-69
2023/08/30 16:51:11;;;;;;;0.20;0.20;;;20.50;99.90;24.30;100709.00;;;;5028207;28;20866;-69
2023/08/30 16:54:05;;;;;;;0.10;0.10;;;20.30;99.90;23.60;100720.00;;;;5033138;28;20210;-68
2023/08/30 16:56:53;;;;;;;2.97;0.93;;;20.10;99.90;23.70;100722.00;;;;5023550;28;20561;-69
2023/08/30 16:59:47;;;;;;;0.10;0.10;;;20.00;99.90;24.10;100715.00;;;;5030372;28;20214;-70
2023/08/30 17:02:31;;;;;;;0.10;0.10;;;20.10;99.90;23.50;100688.00;;;;5016568;28;20199;-69
2023/08/30 17:05:14;;;;;;;0.13;0.13;;;19.80;99.90;23.00;100722.00;;;;5026841;28;20548;-69
2023/08/30 17:08:03;;;;;;;3.10;0.93;;;19.50;99.90;23.50;100720.00;;;;5032869;28;20191;-68
2023/08/30 17:10:31;;;;;;;0.25;0.25;;;19.60;99.90;23.80;100726.00;;;;5034350;28;20249;-69
2023/08/30 17:13:15;;;;;;;0.30;0.30;;;19.80;99.90;22.50;100735.00;;;;5016282;28;20248;-69
2023/08/30 17:15:59;;;;;;;0.20;0.20;;;19.40;99.90;23.30;100721.00;;;;5045942;28;20236;-69
2023/08/30 17:18:37;;;;;;;0.20;0.20;;;19.50;99.90;22.90;100730.00;;;;5032796;28;20213;-69
2023/08/30 17:21:15;;;;;;;0.20;0.20;;;19.30;99.90;23.70;100724.00;;;;5031871;28;20186;-69
2023/08/30 17:23:40;;;;;;;0.13;0.13;;;19.50;99.90;24.00;100718.00;;;;5010211;28;20530;-68
2023/08/30 17:26:29;;;;;;;0.37;0.37;;;19.70;99.90;23.70;100713.00;;;;5032727;28;20240;-69
2023/08/30 17:29:01;;;;;;;0.23;0.23;;;19.80;99.90;23.30;100715.00;;;;5032363;28;20197;-69
2023/08/30 17:31:49;;;;;;;0.20;0.20;;;19.70;99.90;23.50;100722.00;;;;5032031;28;20256;-69
2023/08/30 17:34:24;;;;;;;0.27;0.27;;;19.60;99.90;23.40;100715.00;;;;5032605;28;20182;-69
2023/08/30 17:36:55;;;;;;;0.20;0.20;;;19.50;99.90;23.80;100696.00;;;;5032456;28;20648;-69
2023/08/30 17:39:43;;;;;;;0.20;0.20;;;19.70;99.90;24.30;100672.00;;;;5033954;28;20659;-69
2023/08/30 17:42:18;;;;;;;0.57;0.30;;;19.80;99.90;24.40;100706.00;;;;5026625;28;20636;-69
2023/08/30 17:44:46;;;;;;;0.20;0.20;;;20.00;99.90;24.50;100699.00;;;;5032170;28;20195;-69
2023/08/30 17:47:21;;;;;;;0.20;0.20;;;20.10;99.90;24.50;100688.00;;;;5031860;28;20197;-69
2023/08/30 17:49:54;;;;;;;0.20;0.20;;;20.00;99.90;24.50;100705.00;;;;5033272;28;20182;-69
2023/08/30 17:52:39;;;;;;;0.13;0.13;;;20.00;99.90;24.50;100705.00;;;;5032360;28;20205;-68
2023/08/30 17:55:06;;;;;;;0.20;0.20;;;20.00;99.90;24.20;100696.00;;;;5033212;28;20545;-69
2023/08/30 17:57:32;;;;;;;0.20;0.20;;;19.90;99.90;23.90;100715.00;;;;5031959;28;20703;-69
2023/08/30 18:00:10;;;;;;;0.20;0.20;;;19.60;99.90;24.00;100673.00;;;;5031994;28;20185;-68
2023/08/30 18:02:59;;;;;;;0.20;0.20;;;19.60;99.90;23.60;100727.00;;;;5031810;28;20263;-69
2023/08/30 18:05:25;;;;;;;0.20;0.20;;;19.40;99.90;23.80;100681.00;;;;5025144;28;20571;-69
2023/08/30 18:08:01;;;;;;;0.20;0.20;;;19.50;99.90;23.90;100722.00;;;;5032019;28;20279;-69
2023/08/30 18:10:40;;;;;;;0.20;0.20;;;19.40;99.90;23.90;100712.00;;;;5032266;28;20661;-69
2023/08/30 18:13:08;;;;;;;0.20;0.20;;;19.40;99.90;24.00;100719.00;;;;5031446;28;20212;-69
2023/08/30 18:15:38;;;;;;;0.20;0.20;;;19.30;99.90;23.10;100740.00;;;;5032005;28;20246;-69
2023/08/30 18:18:05;;;;;;;1.73;0.87;;;19.10;99.90;22.90;100746.00;;;;5031622;28;20184;-68
2023/08/30 18:20:31;;;;;;;0.20;0.20;;;18.80;99.90;23.50;100745.00;;;;5033141;28;20195;-69
2023/08/30 18:22:57;;;;;;;0.10;0.10;;;19.00;99.90;23.50;100733.00;;;;5041491;28;20552;-68
2023/08/30 18:25:46;;;;;;;0.20;0.20;;;19.10;99.90;23.10;100752.00;;;;5033462;28;20253;-69
2023/08/30 18:28:35;;;;;;;0.20;0.20;;;19.00;99.90;22.30;100770.00;;;;5056408;28;20189;-69
2023/08/30 18:31:01;;;;;;;0.20;0.20;;;18.50;99.90;21.60;100770.00;;;;5027280;28;20193;-68
2023/08/30 18:33:36;;;;;;;0.10;0.10;;;18.30;99.90;21.90;100767.00;;;;5031567;28;20687;-68
2023/08/30 18:36:05;;;;;;;0.10;0.10;;;18.20;99.90;21.20;100762.00;;;;5031657;28;20197;-68
2023/08/30 18:38:40;;;;;;;0.20;0.20;;;18.00;99.90;22.20;100745.00;;;;5030373;28;20197;-69
2023/08/30 18:41:16;;;;;;;0.33;0.33;;;18.20;99.90;22.00;100751.00;;;;5031617;28;20183;-68
2023/08/30 18:43:43;;;;;;;0.37;0.37;;;18.30;99.90;22.20;100748.00;;;;5012945;28;20192;-68
2023/08/30 18:46:18;;;;;;;0.40;0.40;;;18.30;99.90;22.30;100745.00;;;;5063288;28;20188;-68
2023/08/30 18:48:49;;;;;;;0.20;0.20;;;18.30;99.90;22.00;100726.00;;;;5032782;28;20216;-69
2023/08/30 18:51:17;;;;;;;0.20;0.20;;;18.30;99.90;22.30;100738.00;;;;5031671;28;20315;-69
2023/08/30 18:53:43;;;;;;;0.20;0.20;;;18.40;99.90;23.20;100725.00;;;;5033115;28;20182;-68